createdAt,value
2022-07-26T00:00:53.519Z,20.87
2022-07-26T00:01:54.270Z,20.90
2022-07-26T00:02:53.433Z,20.92
2022-07-26T00:03:53.317Z,20.80
2022-07-26T00:04:54.130Z,20.72
2022-07-26T00:05:53.215Z,20.80
2022-07-26T00:06:53.187Z,20.72
2022-07-26T00:07:53.115Z,20.70
2022-07-26T00:08:53.067Z,20.72
2022-07-26T00:09:53.095Z,20.70
2022-07-26T00:10:52.973Z,20.67
2022-07-26T00:11:52.928Z,20.65
2022-07-26T00:12:52.892Z,20.65
2022-07-26T00:13:52.832Z,20.56
2022-07-26T00:14:52.787Z,20.59
2022-07-26T00:15:52.738Z,20.52
2022-07-26T00:16:52.775Z,20.41
2022-07-26T00:17:52.642Z,20.40
2022-07-26T00:18:52.619Z,20.32
2022-07-26T00:19:52.547Z,20.24
2022-07-26T00:20:52.498Z,20.11
2022-07-26T00:21:53.075Z,20.03
2022-07-26T00:22:52.404Z,19.99
2022-07-26T00:23:52.371Z,19.89
2022-07-26T00:24:52.307Z,19.84
2022-07-26T00:25:52.260Z,19.82
2022-07-26T00:26:52.212Z,19.74
2022-07-26T00:27:52.176Z,19.77
2022-07-26T00:28:52.117Z,19.71
2022-07-26T00:29:52.071Z,19.74
2022-07-26T00:30:52.019Z,19.76
2022-07-26T00:31:52.029Z,19.76
2022-07-26T00:32:51.941Z,19.70
2022-07-26T00:33:51.883Z,19.77
2022-07-26T00:34:51.835Z,19.76
2022-07-26T00:35:51.836Z,19.74
2022-07-26T00:36:51.741Z,19.67
2022-07-26T00:37:51.686Z,19.59
2022-07-26T00:38:51.661Z,19.58
2022-07-26T00:39:51.595Z,19.56
2022-07-26T00:40:51.541Z,19.51
2022-07-26T00:41:51.509Z,19.45
2022-07-26T00:42:51.453Z,19.47
2022-07-26T00:43:51.415Z,19.45
2022-07-26T00:44:51.351Z,19.52
2022-07-26T00:45:51.373Z,19.52
2022-07-26T00:46:51.257Z,19.58
2022-07-26T00:47:51.209Z,19.56
2022-07-26T00:48:51.237Z,19.55
2022-07-26T00:49:51.120Z,19.66
2022-07-26T00:50:51.065Z,19.73
2022-07-26T00:51:51.021Z,19.70
2022-07-26T00:52:50.975Z,19.73
2022-07-26T00:53:50.952Z,19.74
2022-07-26T00:54:50.869Z,19.71
2022-07-26T00:55:50.828Z,19.74
2022-07-26T00:56:54.845Z,19.74
2022-07-26T00:57:50.730Z,19.74
2022-07-26T00:58:50.697Z,19.70
2022-07-26T00:59:50.634Z,19.76
2022-07-26T01:00:50.629Z,19.74
2022-07-26T01:01:50.690Z,19.77
2022-07-26T01:02:50.537Z,19.74
2022-07-26T01:03:50.439Z,19.76
2022-07-26T01:04:50.392Z,19.73
2022-07-26T01:05:50.360Z,19.66
2022-07-26T01:06:50.299Z,19.64
2022-07-26T01:07:50.245Z,19.49
2022-07-26T01:08:50.205Z,19.39
2022-07-26T01:09:50.153Z,19.34
2022-07-26T01:10:50.101Z,19.33
2022-07-26T01:11:50.070Z,19.29
2022-07-26T01:12:50.009Z,19.26
2022-07-26T01:13:49.964Z,19.22
2022-07-26T01:14:49.907Z,19.19
2022-07-26T01:15:49.925Z,19.21
2022-07-26T01:16:49.809Z,19.15
2022-07-26T01:17:49.763Z,19.21
2022-07-26T01:18:49.723Z,19.21
2022-07-26T01:19:49.673Z,19.22
2022-07-26T01:20:49.622Z,19.14
2022-07-26T01:21:49.583Z,19.16
2022-07-26T01:22:49.524Z,19.14
2022-07-26T01:23:49.482Z,19.18
2022-07-26T01:24:49.424Z,19.18
2022-07-26T01:25:49.399Z,19.08
2022-07-26T01:26:49.330Z,19.11
2022-07-26T01:27:49.280Z,19.08
2022-07-26T01:28:49.250Z,19.08
2022-07-26T01:29:49.189Z,19.11
2022-07-26T01:30:49.376Z,19.07
2022-07-26T01:31:49.156Z,19.04
2022-07-26T01:32:49.039Z,18.88
2022-07-26T01:33:48.995Z,18.84
2022-07-26T01:34:48.938Z,18.88
2022-07-26T01:35:48.909Z,18.70
2022-07-26T01:36:48.847Z,18.73
2022-07-26T01:37:48.797Z,18.73
2022-07-26T01:38:48.748Z,18.59
2022-07-26T01:39:48.713Z,18.58
2022-07-26T01:40:48.650Z,18.56
2022-07-26T01:41:48.604Z,18.59
2022-07-26T01:42:48.567Z,18.50
2022-07-26T01:43:48.542Z,18.47
2022-07-26T01:44:48.466Z,18.40
2022-07-26T01:45:48.473Z,18.52
2022-07-26T01:46:48.366Z,18.38
2022-07-26T01:47:48.308Z,18.40
2022-07-26T01:48:48.331Z,18.43
2022-07-26T01:49:48.214Z,18.38
2022-07-26T01:50:48.169Z,18.49
2022-07-26T01:51:48.118Z,18.47
2022-07-26T01:52:48.068Z,18.47
2022-07-26T01:53:48.029Z,18.38
2022-07-26T01:54:47.966Z,18.41
2022-07-26T01:55:47.922Z,18.35
2022-07-26T01:56:47.869Z,18.45
2022-07-26T01:57:47.839Z,18.47
2022-07-26T01:58:47.797Z,18.38
2022-07-26T01:59:47.747Z,18.26
2022-07-26T02:00:47.680Z,18.33
2022-07-26T02:01:47.753Z,18.16
2022-07-26T02:02:47.722Z,18.05
2022-07-26T02:03:47.528Z,18.08
2022-07-26T02:04:47.515Z,18.04
2022-07-26T02:05:47.427Z,18.05
2022-07-26T02:06:47.378Z,18.04
2022-07-26T02:07:47.345Z,18.05
2022-07-26T02:08:47.282Z,18.04
2022-07-26T02:09:47.235Z,18.04
2022-07-26T02:10:47.448Z,18.01
2022-07-26T02:11:47.139Z,18.11
2022-07-26T02:12:47.101Z,18.08
2022-07-26T02:13:52.741Z,18.08
2022-07-26T02:14:47.003Z,18.08
2022-07-26T02:15:47.005Z,18.07
2022-07-26T02:16:46.889Z,18.03
2022-07-26T02:17:46.840Z,18.07
2022-07-26T02:18:46.805Z,17.95
2022-07-26T02:19:46.797Z,17.90
2022-07-26T02:20:46.708Z,17.87
2022-07-26T02:21:46.650Z,17.92
2022-07-26T02:22:46.593Z,17.79
2022-07-26T02:23:46.551Z,17.80
2022-07-26T02:24:46.506Z,17.76
2022-07-26T02:25:46.463Z,17.72
2022-07-26T02:26:46.396Z,17.74
2022-07-26T02:27:46.348Z,17.72
2022-07-26T02:28:46.310Z,17.70
2022-07-26T02:29:46.253Z,17.68
2022-07-26T02:30:46.274Z,17.71
2022-07-26T02:31:48.355Z,17.65
2022-07-26T02:32:46.102Z,17.65
2022-07-26T02:33:46.053Z,17.59
2022-07-26T02:34:46.004Z,17.63
2022-07-26T02:35:45.970Z,17.63
2022-07-26T02:36:45.904Z,17.48
2022-07-26T02:37:45.860Z,17.41
2022-07-26T02:38:45.806Z,17.29
2022-07-26T02:39:45.759Z,17.29
2022-07-26T02:40:45.726Z,17.23
2022-07-26T02:41:45.662Z,17.27
2022-07-26T02:42:45.610Z,17.31
2022-07-26T02:43:45.560Z,17.23
2022-07-26T02:44:45.518Z,17.24
2022-07-26T02:45:45.477Z,17.20
2022-07-26T02:46:45.522Z,17.22
2022-07-26T02:47:45.379Z,17.14
2022-07-26T02:48:45.337Z,17.14
2022-07-26T02:49:45.260Z,17.22
2022-07-26T02:50:45.230Z,17.29
2022-07-26T02:51:45.163Z,17.30
2022-07-26T02:52:45.113Z,17.38
2022-07-26T02:53:45.064Z,17.48
2022-07-26T02:54:45.014Z,17.52
2022-07-26T02:55:44.979Z,17.52
2022-07-26T02:56:44.927Z,17.48
2022-07-26T02:57:46.506Z,17.49
2022-07-26T02:58:44.814Z,17.48
2022-07-26T02:59:44.764Z,17.45
2022-07-26T03:00:44.720Z,17.52
2022-07-26T03:01:44.725Z,17.45
2022-07-26T03:02:44.729Z,17.46
2022-07-26T03:03:50.119Z,17.48
2022-07-26T03:04:44.543Z,17.38
2022-07-26T03:05:44.464Z,17.31
2022-07-26T03:06:44.521Z,17.24
2022-07-26T03:07:44.363Z,17.27
2022-07-26T03:08:44.336Z,17.26
2022-07-26T03:09:44.284Z,17.26
2022-07-26T03:10:44.232Z,17.16
2022-07-26T03:11:53.715Z,17.31
2022-07-26T03:12:44.116Z,17.30
2022-07-26T03:13:44.084Z,17.29
2022-07-26T03:14:44.017Z,17.30
2022-07-26T03:15:44.013Z,17.30
2022-07-26T03:16:43.920Z,17.34
2022-07-26T03:17:43.883Z,17.36
2022-07-26T03:18:43.818Z,17.41
2022-07-26T03:19:43.768Z,17.38
2022-07-26T03:20:43.732Z,17.46
2022-07-26T03:21:43.673Z,17.42
2022-07-26T03:22:43.624Z,17.45
2022-07-26T03:23:43.582Z,17.42
2022-07-26T03:24:43.520Z,17.44
2022-07-26T03:25:43.470Z,17.45
2022-07-26T03:26:43.417Z,17.48
2022-07-26T03:27:43.367Z,17.41
2022-07-26T03:28:43.336Z,17.42
2022-07-26T03:29:43.270Z,17.46
2022-07-26T03:30:43.229Z,17.51
2022-07-26T03:31:43.185Z,17.44
2022-07-26T03:32:43.122Z,17.51
2022-07-26T03:33:43.086Z,17.42
2022-07-26T03:34:43.021Z,17.36
2022-07-26T03:35:42.973Z,17.42
2022-07-26T03:36:42.924Z,17.38
2022-07-26T03:37:45.557Z,17.34
2022-07-26T03:38:42.822Z,17.42
2022-07-26T03:39:42.771Z,17.34
2022-07-26T03:40:42.739Z,17.33
2022-07-26T03:41:42.680Z,17.41
2022-07-26T03:42:42.623Z,17.39
2022-07-26T03:43:42.571Z,17.26
2022-07-26T03:44:42.529Z,17.45
2022-07-26T03:45:42.487Z,17.36
2022-07-26T03:46:42.448Z,17.41
2022-07-26T03:47:42.374Z,17.33
2022-07-26T03:48:42.375Z,17.41
2022-07-26T03:49:42.277Z,17.45
2022-07-26T03:50:42.242Z,17.36
2022-07-26T03:51:42.172Z,17.39
2022-07-26T03:52:42.163Z,17.38
2022-07-26T03:53:42.075Z,17.39
2022-07-26T03:54:42.027Z,17.41
2022-07-26T03:55:41.986Z,17.39
2022-07-26T03:56:41.924Z,17.36
2022-07-26T03:57:41.875Z,17.24
2022-07-26T03:58:41.840Z,17.41
2022-07-26T03:59:41.788Z,17.29
2022-07-26T04:00:41.723Z,17.33
2022-07-26T04:01:41.838Z,17.27
2022-07-26T04:02:42.315Z,17.26
2022-07-26T04:03:45.719Z,17.29
2022-07-26T04:04:41.541Z,17.27
2022-07-26T04:05:41.478Z,17.30
2022-07-26T04:06:41.425Z,17.30
2022-07-26T04:07:41.382Z,17.34
2022-07-26T04:08:41.326Z,17.34
2022-07-26T04:09:41.290Z,17.36
2022-07-26T04:10:41.226Z,17.36
2022-07-26T04:11:41.179Z,17.36
2022-07-26T04:12:41.132Z,17.38
2022-07-26T04:13:41.078Z,17.34
2022-07-26T04:14:41.042Z,17.42
2022-07-26T04:15:40.996Z,17.31
2022-07-26T04:16:43.603Z,17.36
2022-07-26T04:17:40.880Z,17.42
2022-07-26T04:18:40.834Z,17.54
2022-07-26T04:19:40.778Z,17.52
2022-07-26T04:20:40.735Z,17.45
2022-07-26T04:21:40.692Z,17.63
2022-07-26T04:22:40.627Z,17.52
2022-07-26T04:23:40.581Z,17.65
2022-07-26T04:24:40.544Z,17.57
2022-07-26T04:25:41.353Z,17.64
2022-07-26T04:26:40.429Z,17.57
2022-07-26T04:27:40.392Z,17.70
2022-07-26T04:28:40.328Z,17.68
2022-07-26T04:29:40.277Z,17.78
2022-07-26T04:30:40.247Z,17.80
2022-07-26T04:31:40.276Z,17.76
2022-07-26T04:32:40.156Z,17.80
2022-07-26T04:33:40.087Z,17.80
2022-07-26T04:34:40.027Z,17.83
2022-07-26T04:35:39.980Z,17.87
2022-07-26T04:36:39.931Z,17.94
2022-07-26T04:37:39.891Z,17.92
2022-07-26T04:38:39.829Z,17.89
2022-07-26T04:39:39.779Z,17.87
2022-07-26T04:40:40.821Z,17.87
2022-07-26T04:41:39.683Z,17.89
2022-07-26T04:42:39.643Z,17.87
2022-07-26T04:43:39.599Z,17.87
2022-07-26T04:44:39.528Z,17.92
2022-07-26T04:45:39.528Z,17.90
2022-07-26T04:46:39.452Z,17.86
2022-07-26T04:47:39.424Z,17.95
2022-07-26T04:48:39.403Z,18.00
2022-07-26T04:49:39.281Z,17.86
2022-07-26T04:50:39.249Z,17.98
2022-07-26T04:51:39.193Z,18.00
2022-07-26T04:52:39.137Z,17.97
2022-07-26T04:53:39.100Z,18.00
2022-07-26T04:54:39.034Z,18.05
2022-07-26T04:55:38.986Z,18.13
2022-07-26T04:56:38.942Z,18.20
2022-07-26T04:57:38.900Z,18.13
2022-07-26T04:58:38.833Z,18.22
2022-07-26T04:59:38.783Z,18.20
2022-07-26T05:00:56.807Z,18.23
2022-07-26T05:01:38.759Z,18.23
2022-07-26T05:02:38.700Z,18.29
2022-07-26T05:03:38.612Z,18.33
2022-07-26T05:04:38.537Z,18.29
2022-07-26T05:05:38.485Z,18.28
2022-07-26T05:06:38.560Z,18.31
2022-07-26T05:07:38.406Z,18.38
2022-07-26T05:08:38.337Z,18.34
2022-07-26T05:09:38.287Z,18.38
2022-07-26T05:10:38.237Z,18.40
2022-07-26T05:11:38.196Z,18.40
2022-07-26T05:12:38.138Z,18.47
2022-07-26T05:13:38.102Z,18.40
2022-07-26T05:14:38.057Z,18.38
2022-07-26T05:15:37.989Z,18.34
2022-07-26T05:16:39.287Z,18.38
2022-07-26T05:17:37.890Z,18.45
2022-07-26T05:18:45.737Z,18.50
2022-07-26T05:19:37.805Z,18.43
2022-07-26T05:20:37.761Z,18.41
2022-07-26T05:21:37.697Z,18.45
2022-07-26T05:22:37.642Z,18.45
2022-07-26T05:23:37.607Z,18.43
2022-07-26T05:24:37.544Z,18.43
2022-07-26T05:25:37.497Z,18.40
2022-07-26T05:26:37.451Z,18.49
2022-07-26T05:27:37.398Z,18.49
2022-07-26T05:28:37.370Z,18.45
2022-07-26T05:29:37.299Z,18.50
2022-07-26T05:30:37.307Z,18.49
2022-07-26T05:31:37.196Z,18.44
2022-07-26T05:32:37.152Z,18.49
2022-07-26T05:33:37.101Z,18.62
2022-07-26T05:34:37.062Z,18.49
2022-07-26T05:35:36.997Z,18.53
2022-07-26T05:36:36.950Z,18.58
2022-07-26T05:37:36.919Z,18.60
2022-07-26T05:38:36.876Z,18.53
2022-07-26T05:39:36.815Z,18.59
2022-07-26T05:40:36.757Z,18.55
2022-07-26T05:41:36.703Z,18.55
2022-07-26T05:42:36.651Z,18.63
2022-07-26T05:43:40.742Z,18.63
2022-07-26T05:44:36.566Z,18.59
2022-07-26T05:45:36.551Z,18.56
2022-07-26T05:46:36.522Z,18.56
2022-07-26T05:47:36.405Z,18.58
2022-07-26T05:48:36.426Z,18.59
2022-07-26T05:49:39.803Z,18.60
2022-07-26T05:50:36.259Z,18.58
2022-07-26T05:51:36.211Z,18.59
2022-07-26T05:52:36.173Z,18.65
2022-07-26T05:53:36.107Z,18.62
2022-07-26T05:54:36.058Z,18.68
2022-07-26T05:55:36.011Z,18.59
2022-07-26T05:56:35.974Z,18.71
2022-07-26T05:57:35.914Z,18.71
2022-07-26T05:58:35.861Z,18.77
2022-07-26T05:59:35.811Z,18.77
2022-07-26T06:00:35.775Z,18.73
2022-07-26T06:01:35.727Z,18.84
2022-07-26T06:02:35.708Z,18.70
2022-07-26T06:03:35.615Z,18.78
2022-07-26T06:04:35.654Z,18.80
2022-07-26T06:05:35.529Z,18.84
2022-07-26T06:06:35.480Z,18.80
2022-07-26T06:07:35.426Z,18.89
2022-07-26T06:08:35.367Z,18.86
2022-07-26T06:09:35.318Z,18.81
2022-07-26T06:10:35.280Z,18.89
2022-07-26T06:11:35.221Z,18.88
2022-07-26T06:12:35.170Z,18.88
2022-07-26T06:13:35.135Z,18.88
2022-07-26T06:14:35.073Z,18.84
2022-07-26T06:15:35.021Z,18.93
2022-07-26T06:16:34.973Z,18.88
2022-07-26T06:17:34.968Z,18.99
2022-07-26T06:18:34.891Z,18.98
2022-07-26T06:19:34.841Z,19.04
2022-07-26T06:20:34.776Z,19.02
2022-07-26T06:21:34.728Z,19.04
2022-07-26T06:22:34.678Z,19.08
2022-07-26T06:23:35.308Z,19.08
2022-07-26T06:24:34.579Z,19.08
2022-07-26T06:25:34.529Z,19.12
2022-07-26T06:26:34.480Z,19.11
2022-07-26T06:27:34.438Z,19.19
2022-07-26T06:28:34.405Z,19.16
2022-07-26T06:29:34.334Z,19.19
2022-07-26T06:30:34.286Z,19.29
2022-07-26T06:31:34.272Z,19.31
2022-07-26T06:32:34.185Z,19.26
2022-07-26T06:33:34.159Z,19.31
2022-07-26T06:34:34.089Z,19.34
2022-07-26T06:35:34.043Z,19.37
2022-07-26T06:36:33.992Z,19.44
2022-07-26T06:37:33.941Z,19.40
2022-07-26T06:38:33.907Z,19.41
2022-07-26T06:39:33.843Z,19.45
2022-07-26T06:40:33.795Z,19.48
2022-07-26T06:41:33.743Z,19.47
2022-07-26T06:42:33.692Z,19.49
2022-07-26T06:43:33.665Z,19.48
2022-07-26T06:44:33.601Z,19.52
2022-07-26T06:45:33.581Z,19.58
2022-07-26T06:46:33.498Z,19.59
2022-07-26T06:47:33.448Z,19.62
2022-07-26T06:48:33.456Z,19.54
2022-07-26T06:49:33.488Z,19.66
2022-07-26T06:50:33.318Z,19.71
2022-07-26T06:51:33.253Z,19.67
2022-07-26T06:52:33.222Z,19.76
2022-07-26T06:53:33.259Z,19.76
2022-07-26T06:54:33.109Z,19.82
2022-07-26T06:55:33.057Z,19.76
2022-07-26T06:56:33.030Z,19.79
2022-07-26T06:57:32.961Z,19.71
2022-07-26T06:58:32.917Z,19.84
2022-07-26T06:59:32.862Z,19.92
2022-07-26T07:00:32.812Z,19.92
2022-07-26T07:01:58.550Z,20.00
2022-07-26T07:02:32.719Z,20.10
2022-07-26T07:03:32.667Z,20.11
2022-07-26T07:04:33.323Z,20.07
2022-07-26T07:05:32.575Z,20.10
2022-07-26T07:06:32.522Z,20.13
2022-07-26T07:07:32.488Z,20.16
2022-07-26T07:08:32.425Z,20.14
2022-07-26T07:09:32.376Z,20.24
2022-07-26T07:10:32.329Z,20.19
2022-07-26T07:11:32.278Z,20.22
2022-07-26T07:12:32.244Z,20.22
2022-07-26T07:13:32.181Z,20.21
2022-07-26T07:14:32.135Z,20.36
2022-07-26T07:15:32.085Z,20.41
2022-07-26T07:16:32.091Z,20.37
2022-07-26T07:17:32.001Z,20.40
2022-07-26T07:18:31.939Z,20.44
2022-07-26T07:19:31.895Z,20.56
2022-07-26T07:20:31.842Z,20.62
2022-07-26T07:21:31.850Z,20.67
2022-07-26T07:22:31.757Z,20.82
2022-07-26T07:23:31.697Z,20.82
2022-07-26T07:24:31.650Z,20.87
2022-07-26T07:25:31.600Z,20.88
2022-07-26T07:26:31.552Z,20.84
2022-07-26T07:27:31.524Z,20.80
2022-07-26T07:28:31.458Z,20.92
2022-07-26T07:29:31.421Z,20.84
2022-07-26T07:30:31.357Z,20.92
2022-07-26T07:31:49.024Z,20.88
2022-07-26T07:32:31.349Z,20.82
2022-07-26T07:33:36.489Z,20.84
2022-07-26T07:34:31.170Z,20.84
2022-07-26T07:35:32.055Z,20.81
2022-07-26T07:36:31.068Z,20.84
2022-07-26T07:37:52.942Z,20.85
2022-07-26T07:38:30.974Z,20.88
2022-07-26T07:39:34.961Z,20.90
2022-07-26T07:40:30.897Z,20.97
2022-07-26T07:41:30.827Z,21.02
2022-07-26T07:42:30.783Z,20.99
2022-07-26T07:43:30.732Z,21.00
2022-07-26T07:44:30.699Z,21.02
2022-07-26T07:45:30.638Z,21.03
2022-07-26T07:46:30.651Z,21.05
2022-07-26T07:47:30.540Z,21.06
2022-07-26T07:48:30.525Z,21.22
2022-07-26T07:49:30.535Z,21.18
2022-07-26T07:50:30.395Z,21.17
2022-07-26T07:51:30.364Z,21.17
2022-07-26T07:52:30.308Z,21.24
2022-07-26T07:53:30.408Z,21.18
2022-07-26T07:54:30.203Z,21.24
2022-07-26T07:55:41.410Z,21.30
2022-07-26T07:56:30.107Z,21.27
2022-07-26T07:57:30.076Z,21.27
2022-07-26T07:58:30.014Z,21.36
2022-07-26T07:59:29.963Z,21.33
2022-07-26T08:00:29.917Z,21.27
2022-07-26T08:01:39.547Z,21.27
2022-07-26T08:02:29.836Z,21.15
2022-07-26T08:03:38.232Z,21.18
2022-07-26T08:04:29.806Z,21.27
2022-07-26T08:05:29.680Z,21.30
2022-07-26T08:06:29.630Z,21.39
2022-07-26T08:07:33.070Z,21.45
2022-07-26T08:08:29.550Z,21.51
2022-07-26T08:09:29.502Z,21.69
2022-07-26T08:10:29.444Z,21.66
2022-07-26T08:11:30.000Z,21.72
2022-07-26T08:12:29.360Z,21.76
2022-07-26T08:13:29.295Z,21.69
2022-07-26T08:14:29.249Z,21.66
2022-07-26T08:15:29.209Z,21.70
2022-07-26T08:16:29.237Z,21.55
2022-07-26T08:17:29.107Z,21.57
2022-07-26T08:18:29.058Z,21.66
2022-07-26T08:19:42.121Z,21.69
2022-07-26T08:20:28.974Z,21.80
2022-07-26T08:21:29.222Z,21.98
2022-07-26T08:22:28.894Z,22.02
2022-07-26T08:23:28.828Z,22.07
2022-07-26T08:24:28.791Z,22.23
2022-07-26T08:25:28.724Z,22.30
2022-07-26T08:26:28.676Z,22.30
2022-07-26T08:27:28.648Z,22.26
2022-07-26T08:28:58.428Z,22.35
2022-07-26T08:29:28.541Z,22.44
2022-07-26T08:30:28.487Z,22.55
2022-07-26T08:31:28.686Z,22.51
2022-07-26T08:32:28.414Z,22.43
2022-07-26T08:33:28.362Z,22.39
2022-07-26T08:34:28.300Z,22.47
2022-07-26T08:35:28.251Z,22.32
2022-07-26T08:36:32.137Z,22.29
2022-07-26T08:37:28.174Z,22.25
2022-07-26T08:38:28.111Z,22.48
2022-07-26T08:39:28.063Z,22.87
2022-07-26T08:40:28.020Z,23.20
2022-07-26T08:41:27.975Z,23.69
2022-07-26T08:42:27.941Z,23.91
2022-07-26T08:43:27.878Z,23.88
2022-07-26T08:44:27.832Z,23.98
2022-07-26T08:45:27.784Z,23.91
2022-07-26T08:46:28.366Z,23.69
2022-07-26T08:47:39.890Z,23.51
2022-07-26T08:48:27.727Z,23.44
2022-07-26T08:49:27.652Z,23.32
2022-07-26T08:50:27.569Z,23.27
2022-07-26T08:51:27.503Z,23.32
2022-07-26T08:52:27.473Z,23.25
2022-07-26T08:53:27.411Z,23.25
2022-07-26T08:54:27.363Z,23.23
2022-07-26T08:55:32.266Z,23.51
2022-07-26T08:56:27.284Z,23.81
2022-07-26T08:57:27.222Z,24.14
2022-07-26T08:58:27.200Z,24.57
2022-07-26T08:59:27.134Z,24.98
2022-07-26T09:00:27.195Z,25.06
2022-07-26T09:01:27.063Z,25.21
2022-07-26T09:02:27.044Z,25.40
2022-07-26T09:03:27.020Z,25.50
2022-07-26T09:04:38.617Z,25.58
2022-07-26T09:05:26.854Z,25.54
2022-07-26T09:06:28.234Z,25.31
2022-07-26T09:07:26.763Z,25.14
2022-07-26T09:08:26.730Z,24.96
2022-07-26T09:09:26.685Z,24.66
2022-07-26T09:10:26.626Z,24.38
2022-07-26T09:11:26.577Z,24.26
2022-07-26T09:12:26.534Z,24.06
2022-07-26T09:13:26.490Z,23.87
2022-07-26T09:14:35.412Z,23.73
2022-07-26T09:15:26.432Z,23.56
2022-07-26T09:16:26.490Z,23.50
2022-07-26T09:17:26.350Z,23.61
2022-07-26T09:18:26.300Z,23.91
2022-07-26T09:19:26.264Z,24.33
2022-07-26T09:20:27.894Z,24.74
2022-07-26T09:21:26.148Z,25.23
2022-07-26T09:22:26.113Z,25.65
2022-07-26T09:23:26.057Z,25.90
2022-07-26T09:24:26.039Z,26.19
2022-07-26T09:25:25.968Z,26.22
2022-07-26T09:26:25.946Z,25.84
2022-07-26T09:27:28.264Z,25.80
2022-07-26T09:28:25.844Z,26.07
2022-07-26T09:29:25.793Z,26.41
2022-07-26T09:30:25.739Z,26.62
2022-07-26T09:31:25.788Z,26.71
2022-07-26T09:32:25.673Z,26.45
2022-07-26T09:33:25.588Z,25.98
2022-07-26T09:34:25.566Z,25.70
2022-07-26T09:35:49.933Z,25.51
2022-07-26T09:36:25.482Z,25.32
2022-07-26T09:37:25.447Z,25.11
2022-07-26T09:38:25.388Z,24.99
2022-07-26T09:39:34.092Z,24.96
2022-07-26T09:40:25.300Z,24.92
2022-07-26T09:41:25.244Z,25.25
2022-07-26T09:42:28.978Z,25.54
2022-07-26T09:43:25.173Z,25.85
2022-07-26T09:44:25.108Z,26.23
2022-07-26T09:45:25.094Z,26.36
2022-07-26T09:46:25.047Z,26.74
2022-07-26T09:47:24.968Z,27.18
2022-07-26T09:48:24.950Z,27.40
2022-07-26T09:49:28.277Z,27.67
2022-07-26T09:50:24.922Z,27.92
2022-07-26T09:51:25.409Z,28.17
2022-07-26T09:52:24.762Z,28.26
2022-07-26T09:53:24.742Z,28.44
2022-07-26T09:54:24.648Z,28.49
2022-07-26T09:55:24.614Z,28.11
2022-07-26T09:56:24.597Z,27.82
2022-07-26T09:57:24.557Z,27.67
2022-07-26T09:58:24.512Z,27.59
2022-07-26T09:59:24.439Z,27.54
2022-07-26T10:00:24.388Z,27.55
2022-07-26T10:01:24.403Z,27.83
2022-07-26T10:02:31.051Z,28.02
2022-07-26T10:03:31.420Z,28.10
2022-07-26T10:04:24.247Z,28.08
2022-07-26T10:05:30.926Z,28.00
2022-07-26T10:06:30.082Z,27.59
2022-07-26T10:07:24.095Z,27.33
2022-07-26T10:08:24.033Z,27.14
2022-07-26T10:09:24.030Z,26.75
2022-07-26T10:10:23.970Z,26.58
2022-07-26T10:11:23.910Z,26.36
2022-07-26T10:12:27.226Z,26.21
2022-07-26T10:13:23.857Z,26.16
2022-07-26T10:14:23.784Z,25.98
2022-07-26T10:15:23.777Z,26.02
2022-07-26T10:16:23.718Z,26.07
2022-07-26T10:17:28.997Z,26.00
2022-07-26T10:18:23.614Z,25.95
2022-07-26T10:19:23.601Z,25.88
2022-07-26T10:20:24.795Z,25.98
2022-07-26T10:21:23.465Z,26.16
2022-07-26T10:22:23.417Z,26.31
2022-07-26T10:23:23.399Z,26.43
2022-07-26T10:24:23.366Z,26.41
2022-07-26T10:25:23.333Z,26.68
2022-07-26T10:26:23.264Z,26.75
2022-07-26T10:27:23.224Z,26.97
2022-07-26T10:28:23.178Z,27.02
2022-07-26T10:29:23.134Z,26.99
2022-07-26T10:30:23.111Z,26.81
2022-07-26T10:31:23.116Z,26.70
2022-07-26T10:32:22.982Z,26.63
2022-07-26T10:33:22.962Z,26.71
2022-07-26T10:34:22.958Z,26.83
2022-07-26T10:35:22.892Z,27.00
2022-07-26T10:36:22.827Z,27.27
2022-07-26T10:37:22.778Z,27.45
2022-07-26T10:38:22.743Z,27.82
2022-07-26T10:39:22.698Z,28.26
2022-07-26T10:40:22.783Z,28.62
2022-07-26T10:41:22.637Z,28.91
2022-07-26T10:42:22.563Z,29.23
2022-07-26T10:43:40.034Z,29.57
2022-07-26T10:44:22.485Z,29.79
2022-07-26T10:45:22.474Z,30.08
2022-07-26T10:46:22.414Z,30.39
2022-07-26T10:47:22.342Z,30.63
2022-07-26T10:48:22.305Z,30.63
2022-07-26T10:49:22.265Z,30.40
2022-07-26T10:50:22.446Z,29.98
2022-07-26T10:51:22.157Z,29.88
2022-07-26T10:52:22.137Z,29.91
2022-07-26T10:53:22.139Z,29.91
2022-07-26T10:54:22.057Z,29.69
2022-07-26T10:55:22.012Z,29.54
2022-07-26T10:56:21.997Z,29.32
2022-07-26T10:57:21.944Z,29.07
2022-07-26T10:58:21.877Z,28.76
2022-07-26T10:59:45.764Z,28.41
2022-07-26T11:00:21.789Z,27.89
2022-07-26T11:01:21.824Z,27.54
2022-07-26T11:02:21.755Z,27.12
2022-07-26T11:03:21.775Z,26.99
2022-07-26T11:04:21.620Z,26.90
2022-07-26T11:05:21.582Z,26.83
2022-07-26T11:06:21.552Z,26.75
2022-07-26T11:07:21.488Z,26.81
2022-07-26T11:08:21.485Z,26.78
2022-07-26T11:09:21.578Z,26.70
2022-07-26T11:10:21.377Z,26.53
2022-07-26T11:11:21.316Z,26.36
2022-07-26T11:12:21.283Z,26.25
2022-07-26T11:13:21.273Z,26.18
2022-07-26T11:14:21.205Z,25.90
2022-07-26T11:15:21.154Z,25.78
2022-07-26T11:16:21.237Z,25.72
2022-07-26T11:17:21.085Z,25.48
2022-07-26T11:18:21.075Z,25.51
2022-07-26T11:19:21.043Z,25.43
2022-07-26T11:20:20.929Z,25.36
2022-07-26T11:21:20.886Z,25.36
2022-07-26T11:22:20.869Z,25.25
2022-07-26T11:23:20.851Z,25.21
2022-07-26T11:24:20.753Z,25.17
2022-07-26T11:25:20.729Z,25.06
2022-07-26T11:26:20.691Z,24.98
2022-07-26T11:27:20.656Z,24.99
2022-07-26T11:28:20.581Z,25.07
2022-07-26T11:29:22.664Z,25.04
2022-07-26T11:30:20.502Z,24.98
2022-07-26T11:31:20.492Z,24.99
2022-07-26T11:32:22.063Z,24.92
2022-07-26T11:33:20.386Z,24.93
2022-07-26T11:34:20.361Z,24.91
2022-07-26T11:35:20.293Z,25.03
2022-07-26T11:36:20.275Z,24.92
2022-07-26T11:37:20.510Z,24.99
2022-07-26T11:38:20.139Z,24.93
2022-07-26T11:39:20.117Z,24.78
2022-07-26T11:40:20.070Z,24.84
2022-07-26T11:41:20.022Z,24.85
2022-07-26T11:42:20.000Z,24.85
2022-07-26T11:43:19.914Z,24.88
2022-07-26T11:44:19.887Z,24.93
2022-07-26T11:45:19.838Z,24.96
2022-07-26T11:46:19.849Z,24.98
2022-07-26T11:47:19.791Z,25.04
2022-07-26T11:48:19.736Z,25.10
2022-07-26T11:49:19.676Z,24.99
2022-07-26T11:50:22.940Z,25.06
2022-07-26T11:51:19.584Z,25.13
2022-07-26T11:52:24.349Z,25.07
2022-07-26T11:53:19.528Z,25.14
2022-07-26T11:54:19.429Z,25.11
2022-07-26T11:55:19.395Z,25.10
2022-07-26T11:56:19.342Z,25.07
2022-07-26T11:57:19.340Z,25.16
2022-07-26T11:58:19.250Z,25.21
2022-07-26T11:59:19.215Z,25.14
2022-07-26T12:00:19.206Z,25.23
2022-07-26T12:01:19.123Z,25.26
2022-07-26T12:02:19.103Z,25.43
2022-07-26T12:03:19.048Z,25.48
2022-07-26T12:04:19.096Z,25.54
2022-07-26T12:05:19.585Z,25.54
2022-07-26T12:06:18.979Z,25.69
2022-07-26T12:07:18.858Z,25.80
2022-07-26T12:08:19.131Z,25.96
2022-07-26T12:09:18.833Z,26.10
2022-07-26T12:10:18.729Z,26.07
2022-07-26T12:11:18.695Z,26.33
2022-07-26T12:12:18.690Z,26.44
2022-07-26T12:13:18.593Z,26.59
2022-07-26T12:14:18.873Z,26.90
2022-07-26T12:15:18.778Z,27.14
2022-07-26T12:16:18.488Z,27.33
2022-07-26T12:17:18.410Z,27.47
2022-07-26T12:18:18.397Z,27.63
2022-07-26T12:19:18.329Z,27.64
2022-07-26T12:20:18.291Z,27.67
2022-07-26T12:21:18.247Z,27.86
2022-07-26T12:22:18.195Z,28.02
2022-07-26T12:23:18.206Z,28.30
2022-07-26T12:24:18.112Z,28.52
2022-07-26T12:25:18.094Z,28.78
2022-07-26T12:26:20.926Z,29.14
2022-07-26T12:27:17.990Z,29.38
2022-07-26T12:28:17.963Z,29.69
2022-07-26T12:29:17.901Z,29.91
2022-07-26T12:30:17.912Z,30.02
2022-07-26T12:31:17.843Z,29.95
2022-07-26T12:32:17.793Z,29.79
2022-07-26T12:33:17.735Z,29.44
2022-07-26T12:34:17.704Z,29.42
2022-07-26T12:35:17.651Z,29.35
2022-07-26T12:36:17.641Z,29.32
2022-07-26T12:37:17.546Z,29.13
2022-07-26T12:38:17.517Z,29.08
2022-07-26T12:39:17.480Z,29.04
2022-07-26T12:40:17.445Z,28.96
2022-07-26T12:41:17.433Z,28.86
2022-07-26T12:42:21.158Z,28.70
2022-07-26T12:43:17.304Z,28.59
2022-07-26T12:44:17.449Z,28.37
2022-07-26T12:45:17.237Z,28.29
2022-07-26T12:46:17.217Z,28.19
2022-07-26T12:47:17.200Z,27.95
2022-07-26T12:48:17.110Z,27.87
2022-07-26T12:49:18.026Z,27.65
2022-07-26T12:50:17.036Z,27.51
2022-07-26T12:51:16.973Z,27.35
2022-07-26T12:52:16.937Z,27.32